首页
METAR-TAF:

METAR-TAF

机场 :

卡利斯佩尔, 蒙大拿州, 美国

纬度: 48-18-15N, 经度: 114-15-49W, 海拔: 906米

当前天气观测

该预报发布于1小时和4分钟前的23:55 UTC
风速13节,风向西转西南,有时为23节阵风
温度 21°C
湿度 33%
气压 1014 hPa
能見度: 16.1公里
天空无云

METAR: KGPI 262355Z 24013G23KT 10SM CLR 21/04 A2994 RMK AO2 PK WND 22026/2300 SLP131 60000 T02060044 10211 20144 58002

时间: 18:59 (00:59 UTC)

预报

该预报发布于1小时和39分钟前的23:20 UTC
预报有效从27日的 00点(UTC)到 27日的 24点(UTC)
风速12节,风向西南,有时为22节阵风
能見度: 10公里
散云层高于7000英尺
多云层高于10000英尺
附近有阵雨
从 27日的 0300点(UTC)
风速8节,风向北转西北
能見度: 10公里
散云层高于7000英尺
多云层高于10000英尺
小阵雨
从 27日的 0600点(UTC)
风速4节,风向多变
能見度: 10公里
散云层高于7000英尺
散云层高于25000英尺
从 27日的 1900点(UTC)
风速9节,风向西转西南
能見度: 10公里
散云层高于8000英尺

TAF: KGPI 262320Z 2700/2724 23012G22KT P6SM VCSH SCT070 BKN100 FM270300 34008KT P6SM -SHRA SCT070 BKN100 FM270600 VRB04KT P6SM SCT070 SCT250 FM271900 24009KT P6SM SCT080

超过4000个机场的气象观测和天气预报(METAR&TAF报告)。

可查询的气象台以黄色和红色小点在地图上表示。

将鼠标移到小点上方,可查看气象台名称。

然后点击查看天气观测和预报。

如需切换地图:点击带黑十字的绿色按钮放大地图;点击带横线的绿色按钮缩小地图;或者点击绿色箭头查看邻近地区的地图。


METAR-TAF: